Inicio METAR Ruta Wind Satelite

Informe Meteorológico

Fecha: 2020/09/22 21:56:50 Local
2020.09.23 02:56 UTC


Estado: VENCIDO
Operación:VFR
Providencia Isla / El Embrujo, Colombia (SKPV) 13-22N 081-21W
2020.09.23 0000 UTC
Sky conditions: mostly cloudy
Temperature: 82 F (28 C)
Dew Point: 77 F (25 C)
Relative Humidity: 83%
Pressure (altimeter): 29.82 in. Hg (1009 hPa)
ob: SKPV 230000Z 05004KT9999 FEW017 BKN200 28/25 A2982
cycle: 0

SKPV 222200Z 08004KT 350V140 9999 FEW018 BKN200 30/26 A2982
SKPV 222100Z 08004KT 330V120 9999 FEW018 BKN200 32/27 A2981
SKPV 221900Z 09008KT 9999 FEW018 BKN200 32/27 A2984
SKPV 221800Z 07010KT 9999 FEW018 BKN200 32/28 A2986
SKPV 221700Z 07008KT 9999 FEW018 BKN200 32/28 A2988